sensor_id;sensor_type;location;lat;lon;timestamp;P1;durP1;ratioP1;P2;durP2;ratioP2
27367;SDS011;14839;48.106;11.618;2022-07-19T04:00:55;1.80;;;1.40;;
27367;SDS011;14839;48.106;11.618;2022-07-19T04:03:20;1.80;;;1.40;;
27367;SDS011;14839;48.106;11.618;2022-07-19T04:05:46;2.40;;;1.90;;
27367;SDS011;14839;48.106;11.618;2022-07-19T04:08:11;3.03;;;1.90;;
27367;SDS011;14839;48.106;11.618;2022-07-19T04:10:37;2.03;;;1.60;;
27367;SDS011;14839;48.106;11.618;2022-07-19T04:13:03;1.90;;;1.50;;
27367;SDS011;14839;48.106;11.618;2022-07-19T04:15:28;1.93;;;1.50;;
27367;SDS011;14839;48.106;11.618;2022-07-19T04:17:54;1.97;;;1.30;;
27367;SDS011;14839;48.106;11.618;2022-07-19T04:20:19;2.00;;;1.60;;
27367;SDS011;14839;48.106;11.618;2022-07-19T04:22:45;3.10;;;2.10;;
27367;SDS011;14839;48.106;11.618;2022-07-19T04:25:10;1.67;;;1.50;;
27367;SDS011;14839;48.106;11.618;2022-07-19T04:27:36;2.53;;;1.63;;
27367;SDS011;14839;48.106;11.618;2022-07-19T04:30:02;2.77;;;1.50;;
27367;SDS011;14839;48.106;11.618;2022-07-19T04:32:29;2.17;;;1.80;;
27367;SDS011;14839;48.106;11.618;2022-07-19T04:34:54;1.83;;;1.63;;
27367;SDS011;14839;48.106;11.618;2022-07-19T04:37:20;3.60;;;1.90;;
27367;SDS011;14839;48.106;11.618;2022-07-19T04:39:46;2.03;;;1.47;;
27367;SDS011;14839;48.106;11.618;2022-07-19T04:42:11;2.13;;;1.70;;
27367;SDS011;14839;48.106;11.618;2022-07-19T04:44:37;1.50;;;1.40;;
27367;SDS011;14839;48.106;11.618;2022-07-19T04:47:03;1.63;;;1.53;;
27367;SDS011;14839;48.106;11.618;2022-07-19T04:49:28;1.90;;;1.40;;
27367;SDS011;14839;48.106;11.618;2022-07-19T04:51:54;2.70;;;1.20;;
27367;SDS011;14839;48.106;11.618;2022-07-19T04:54:19;4.03;;;1.30;;
27367;SDS011;14839;48.106;11.618;2022-07-19T04:56:45;1.95;;;1.50;;
27367;SDS011;14839;48.106;11.618;2022-07-19T04:59:11;3.30;;;1.20;;
27367;SDS011;14839;48.106;11.618;2022-07-19T05:01:36;1.70;;;1.27;;
27367;SDS011;14839;48.106;11.618;2022-07-19T05:04:02;1.48;;;1.38;;
27367;SDS011;14839;48.106;11.618;2022-07-19T05:06:28;2.42;;;1.30;;
27367;SDS011;14839;48.106;11.618;2022-07-19T05:08:53;1.98;;;1.75;;
27367;SDS011;14839;48.106;11.618;2022-07-19T05:11:21;2.90;;;1.25;;
27367;SDS011;14839;48.106;11.618;2022-07-19T05:13:47;1.30;;;1.20;;
27367;SDS011;14839;48.106;11.618;2022-07-19T05:16:12;2.85;;;1.40;;
27367;SDS011;14839;48.106;11.618;2022-07-19T05:18:38;1.85;;;1.63;;
27367;SDS011;14839;48.106;11.618;2022-07-19T05:21:04;2.15;;;1.30;;
27367;SDS011;14839;48.106;11.618;2022-07-19T05:23:29;3.80;;;1.52;;
27367;SDS011;14839;48.106;11.618;2022-07-19T05:25:55;1.77;;;1.67;;
27367;SDS011;14839;48.106;11.618;2022-07-19T05:28:20;1.50;;;1.38;;
27367;SDS011;14839;48.106;11.618;2022-07-19T05:30:46;2.28;;;1.55;;
27367;SDS011;14839;48.106;11.618;2022-07-19T05:33:11;1.67;;;1.42;;
27367;SDS011;14839;48.106;11.618;2022-07-19T05:35:37;1.75;;;1.50;;
27367;SDS011;14839;48.106;11.618;2022-07-19T05:38:03;1.80;;;1.70;;
27367;SDS011;14839;48.106;11.618;2022-07-19T05:40:29;2.20;;;1.73;;
27367;SDS011;14839;48.106;11.618;2022-07-19T05:42:54;1.70;;;1.60;;
27367;SDS011;14839;48.106;11.618;2022-07-19T05:45:20;1.88;;;1.45;;
27367;SDS011;14839;48.106;11.618;2022-07-19T05:47:45;1.42;;;1.35;;
27367;SDS011;14839;48.106;11.618;2022-07-19T05:50:11;4.90;;;1.48;;
27367;SDS011;14839;48.106;11.618;2022-07-19T05:52:37;1.48;;;1.38;;
27367;SDS011;14839;48.106;11.618;2022-07-19T05:55:02;2.25;;;1.50;;
27367;SDS011;14839;48.106;11.618;2022-07-19T05:57:29;2.10;;;1.60;;
27367;SDS011;14839;48.106;11.618;2022-07-19T05:59:55;2.33;;;1.65;;
27367;SDS011;14839;48.106;11.618;2022-07-19T06:02:20;1.73;;;1.55;;
27367;SDS011;14839;48.106;11.618;2022-07-19T06:04:46;1.80;;;1.60;;
27367;SDS011;14839;48.106;11.618;2022-07-19T06:07:11;2.13;;;1.60;;
27367;SDS011;14839;48.106;11.618;2022-07-19T06:09:37;1.60;;;1.50;;
27367;SDS011;14839;48.106;11.618;2022-07-19T06:12:03;2.25;;;1.88;;
27367;SDS011;14839;48.106;11.618;2022-07-19T06:14:28;2.13;;;1.50;;
27367;SDS011;14839;48.106;11.618;2022-07-19T06:16:54;1.40;;;1.30;;
27367;SDS011;14839;48.106;11.618;2022-07-19T06:19:19;1.00;;;1.00;;
27367;SDS011;14839;48.106;11.618;2022-07-19T06:21:45;1.98;;;1.50;;
27367;SDS011;14839;48.106;11.618;2022-07-19T06:24:11;2.10;;;1.38;;
27367;SDS011;14839;48.106;11.618;2022-07-19T06:26:36;1.50;;;1.40;;
27367;SDS011;14839;48.106;11.618;2022-07-19T06:29:02;1.70;;;1.60;;
27367;SDS011;14839;48.106;11.618;2022-07-19T06:31:28;1.38;;;1.27;;
27367;SDS011;14839;48.106;11.618;2022-07-19T06:33:53;1.65;;;1.40;;
27367;SDS011;14839;48.106;11.618;2022-07-19T06:36:19;2.53;;;1.60;;
27367;SDS011;14839;48.106;11.618;2022-07-19T06:38:45;1.70;;;1.38;;
27367;SDS011;14839;48.106;11.618;2022-07-19T06:41:12;2.95;;;2.00;;
27367;SDS011;14839;48.106;11.618;2022-07-19T06:43:38;2.17;;;1.73;;
27367;SDS011;14839;48.106;11.618;2022-07-19T06:46:04;1.67;;;1.40;;
27367;SDS011;14839;48.106;11.618;2022-07-19T06:48:30;6.40;;;1.50;;
27367;SDS011;14839;48.106;11.618;2022-07-19T06:50:56;1.80;;;1.50;;
27367;SDS011;14839;48.106;11.618;2022-07-19T06:53:21;1.92;;;1.70;;
27367;SDS011;14839;48.106;11.618;2022-07-19T06:55:47;1.55;;;1.40;;
27367;SDS011;14839;48.106;11.618;2022-07-19T06:58:12;2.53;;;1.80;;
27367;SDS011;14839;48.106;11.618;2022-07-19T07:00:38;1.52;;;1.42;;
27367;SDS011;14839;48.106;11.618;2022-07-19T07:03:04;1.77;;;1.30;;
27367;SDS011;14839;48.106;11.618;2022-07-19T07:05:30;1.50;;;1.40;;
27367;SDS011;14839;48.106;11.618;2022-07-19T07:07:57;1.50;;;1.40;;
27367;SDS011;14839;48.106;11.618;2022-07-19T07:10:22;1.70;;;1.60;;
27367;SDS011;14839;48.106;11.618;2022-07-19T07:12:48;1.65;;;1.40;;
27367;SDS011;14839;48.106;11.618;2022-07-19T07:15:14;1.77;;;1.65;;
27367;SDS011;14839;48.106;11.618;2022-07-19T07:17:40;1.50;;;1.40;;
27367;SDS011;14839;48.106;11.618;2022-07-19T07:20:07;2.05;;;1.60;;
27367;SDS011;14839;48.106;11.618;2022-07-19T07:22:34;2.45;;;1.63;;
27367;SDS011;14839;48.106;11.618;2022-07-19T07:25:01;1.50;;;1.40;;
27367;SDS011;14839;48.106;11.618;2022-07-19T07:27:27;1.67;;;1.58;;
27367;SDS011;14839;48.106;11.618;2022-07-19T07:29:53;1.52;;;1.42;;
27367;SDS011;14839;48.106;11.618;2022-07-19T07:32:19;1.38;;;1.25;;
27367;SDS011;14839;48.106;11.618;2022-07-19T07:34:45;1.48;;;1.38;;
27367;SDS011;14839;48.106;11.618;2022-07-19T07:37:10;1.58;;;1.48;;
27367;SDS011;14839;48.106;11.618;2022-07-19T07:39:36;1.30;;;1.20;;
27367;SDS011;14839;48.106;11.618;2022-07-19T07:42:03;2.05;;;1.27;;
27367;SDS011;14839;48.106;11.618;2022-07-19T07:44:29;1.48;;;1.30;;
27367;SDS011;14839;48.106;11.618;2022-07-19T07:46:55;1.75;;;1.30;;
27367;SDS011;14839;48.106;11.618;2022-07-19T07:49:21;1.67;;;1.40;;
27367;SDS011;14839;48.106;11.618;2022-07-19T07:51:47;1.88;;;1.50;;
27367;SDS011;14839;48.106;11.618;2022-07-19T07:54:12;1.50;;;1.40;;
27367;SDS011;14839;48.106;11.618;2022-07-19T07:56:38;1.50;;;1.35;;
27367;SDS011;14839;48.106;11.618;2022-07-19T07:59:04;1.25;;;1.17;;
27367;SDS011;14839;48.106;11.618;2022-07-19T08:01:29;1.38;;;1.27;;
27367;SDS011;14839;48.106;11.618;2022-07-19T08:03:55;1.50;;;1.33;;
27367;SDS011;14839;48.106;11.618;2022-07-19T08:06:21;1.38;;;1.27;;
27367;SDS011;14839;48.106;11.618;2022-07-19T08:08:47;1.60;;;1.50;;
27367;SDS011;14839;48.106;11.618;2022-07-19T08:11:12;1.50;;;1.40;;
27367;SDS011;14839;48.106;11.618;2022-07-19T08:13:38;1.52;;;1.33;;
27367;SDS011;14839;48.106;11.618;2022-07-19T08:16:04;2.85;;;1.23;;
27367;SDS011;14839;48.106;11.618;2022-07-19T08:18:31;1.20;;;1.10;;
27367;SDS011;14839;48.106;11.618;2022-07-19T08:20:56;2.15;;;1.40;;
27367;SDS011;14839;48.106;11.618;2022-07-19T08:23:22;1.35;;;1.25;;
27367;SDS011;14839;48.106;11.618;2022-07-19T08:25:47;1.25;;;1.15;;
27367;SDS011;14839;48.106;11.618;2022-07-19T08:28:13;1.50;;;1.40;;
27367;SDS011;14839;48.106;11.618;2022-07-19T08:30:39;1.40;;;1.25;;
27367;SDS011;14839;48.106;11.618;2022-07-19T08:33:04;2.50;;;1.40;;
27367;SDS011;14839;48.106;11.618;2022-07-19T08:35:33;1.20;;;1.10;;
27367;SDS011;14839;48.106;11.618;2022-07-19T08:37:59;5.80;;;1.30;;
27367;SDS011;14839;48.106;11.618;2022-07-19T08:40:24;1.25;;;0.90;;
27367;SDS011;14839;48.106;11.618;2022-07-19T08:42:50;3.03;;;1.00;;
27367;SDS011;14839;48.106;11.618;2022-07-19T08:45:16;0.90;;;0.90;;
27367;SDS011;14839;48.106;11.618;2022-07-19T08:47:42;1.95;;;0.80;;
27367;SDS011;14839;48.106;11.618;2022-07-19T08:50:10;1.70;;;1.02;;
27367;SDS011;14839;48.106;11.618;2022-07-19T08:52:36;1.15;;;1.05;;
27367;SDS011;14839;48.106;11.618;2022-07-19T08:55:03;1.27;;;0.90;;
27367;SDS011;14839;48.106;11.618;2022-07-19T08:57:29;4.97;;;1.10;;
27367;SDS011;14839;48.106;11.618;2022-07-19T09:00:13;1.33;;;1.00;;
27367;SDS011;14839;48.106;11.618;2022-07-19T09:02:39;1.00;;;0.80;;
27367;SDS011;14839;48.106;11.618;2022-07-19T09:05:07;3.58;;;0.95;;
27367;SDS011;14839;48.106;11.618;2022-07-19T09:07:35;0.70;;;0.70;;
27367;SDS011;14839;48.106;11.618;2022-07-19T09:10:14;1.50;;;0.90;;
27367;SDS011;14839;48.106;11.618;2022-07-19T09:15:46;2.17;;;0.98;;
27367;SDS011;14839;48.106;11.618;2022-07-19T09:20:44;0.80;;;0.80;;
27367;SDS011;14839;48.106;11.618;2022-07-19T09:23:11;1.00;;;0.85;;
27367;SDS011;14839;48.106;11.618;2022-07-19T09:25:50;0.80;;;0.73;;
27367;SDS011;14839;48.106;11.618;2022-07-19T09:28:22;1.00;;;0.60;;
27367;SDS011;14839;48.106;11.618;2022-07-19T09:30:49;1.17;;;0.95;;
27367;SDS011;14839;48.106;11.618;2022-07-19T09:33:26;1.05;;;0.75;;
27367;SDS011;14839;48.106;11.618;2022-07-19T09:35:55;1.05;;;0.88;;
27367;SDS011;14839;48.106;11.618;2022-07-19T09:38:29;1.20;;;1.10;;
27367;SDS011;14839;48.106;11.618;2022-07-19T09:46:37;1.60;;;1.10;;
27367;SDS011;14839;48.106;11.618;2022-07-19T09:49:08;1.73;;;1.10;;
27367;SDS011;14839;48.106;11.618;2022-07-19T09:51:36;3.58;;;0.95;;
27367;SDS011;14839;48.106;11.618;2022-07-19T09:54:03;1.83;;;1.30;;
27367;SDS011;14839;48.106;11.618;2022-07-19T09:56:30;1.35;;;1.20;;
27367;SDS011;14839;48.106;11.618;2022-07-19T09:58:57;1.33;;;1.02;;
27367;SDS011;14839;48.106;11.618;2022-07-19T10:01:23;1.25;;;1.10;;
27367;SDS011;14839;48.106;11.618;2022-07-19T10:03:51;1.27;;;1.15;;
27367;SDS011;14839;48.106;11.618;2022-07-19T10:06:19;0.90;;;0.90;;
27367;SDS011;14839;48.106;11.618;2022-07-19T10:08:45;1.55;;;0.93;;
27367;SDS011;14839;48.106;11.618;2022-07-19T10:11:11;1.23;;;1.05;;
27367;SDS011;14839;48.106;11.618;2022-07-19T10:13:37;0.88;;;0.88;;
27367;SDS011;14839;48.106;11.618;2022-07-19T10:16:04;1.05;;;0.95;;
27367;SDS011;14839;48.106;11.618;2022-07-19T10:18:37;0.85;;;0.85;;
27367;SDS011;14839;48.106;11.618;2022-07-19T10:21:21;2.25;;;1.13;;
27367;SDS011;14839;48.106;11.618;2022-07-19T10:23:51;1.25;;;0.98;;
27367;SDS011;14839;48.106;11.618;2022-07-19T10:26:33;2.00;;;1.05;;
27367;SDS011;14839;48.106;11.618;2022-07-19T10:29:09;0.80;;;0.80;;
27367;SDS011;14839;48.106;11.618;2022-07-19T10:31:40;1.15;;;1.05;;
27367;SDS011;14839;48.106;11.618;2022-07-19T10:34:09;4.55;;;1.33;;
27367;SDS011;14839;48.106;11.618;2022-07-19T10:36:46;1.70;;;1.30;;
27367;SDS011;14839;48.106;11.618;2022-07-19T10:39:19;1.25;;;1.15;;
27367;SDS011;14839;48.106;11.618;2022-07-19T10:47:20;1.27;;;1.17;;
27367;SDS011;14839;48.106;11.618;2022-07-19T10:49:47;1.77;;;1.42;;
27367;SDS011;14839;48.106;11.618;2022-07-19T10:57:50;1.33;;;1.15;;
27367;SDS011;14839;48.106;11.618;2022-07-19T11:02:48;2.47;;;1.63;;
27367;SDS011;14839;48.106;11.618;2022-07-19T11:05:21;3.70;;;1.60;;
27367;SDS011;14839;48.106;11.618;2022-07-19T11:07:48;1.58;;;1.33;;
27367;SDS011;14839;48.106;11.618;2022-07-19T11:10:25;1.83;;;1.33;;
27367;SDS011;14839;48.106;11.618;2022-07-19T11:12:55;1.33;;;1.10;;
27367;SDS011;14839;48.106;11.618;2022-07-19T11:15:22;3.20;;;1.75;;
27367;SDS011;14839;48.106;11.618;2022-07-19T11:17:53;1.88;;;1.67;;
27367;SDS011;14839;48.106;11.618;2022-07-19T11:20:23;2.75;;;1.75;;
27367;SDS011;14839;48.106;11.618;2022-07-19T11:22:53;1.40;;;1.20;;
27367;SDS011;14839;48.106;11.618;2022-07-19T11:27:56;2.10;;;1.45;;
27367;SDS011;14839;48.106;11.618;2022-07-19T11:30:22;2.10;;;1.70;;
27367;SDS011;14839;48.106;11.618;2022-07-19T11:32:50;1.92;;;1.60;;
27367;SDS011;14839;48.106;11.618;2022-07-19T11:35:18;2.42;;;1.98;;
27367;SDS011;14839;48.106;11.618;2022-07-19T11:37:43;1.80;;;1.55;;
27367;SDS011;14839;48.106;11.618;2022-07-19T11:40:10;2.13;;;1.50;;
27367;SDS011;14839;48.106;11.618;2022-07-19T11:42:38;2.15;;;1.85;;
27367;SDS011;14839;48.106;11.618;2022-07-19T11:47:44;3.92;;;2.15;;
27367;SDS011;14839;48.106;11.618;2022-07-19T11:50:11;1.50;;;1.40;;
27367;SDS011;14839;48.106;11.618;2022-07-19T11:52:42;2.63;;;2.00;;
27367;SDS011;14839;48.106;11.618;2022-07-19T11:55:12;1.75;;;1.65;;
27367;SDS011;14839;48.106;11.618;2022-07-19T11:57:38;2.45;;;1.67;;
27367;SDS011;14839;48.106;11.618;2022-07-19T12:00:05;3.50;;;1.63;;
27367;SDS011;14839;48.106;11.618;2022-07-19T12:02:49;2.08;;;1.70;;
27367;SDS011;14839;48.106;11.618;2022-07-19T12:05:18;1.63;;;1.52;;
27367;SDS011;14839;48.106;11.618;2022-07-19T12:07:45;2.22;;;1.40;;
27367;SDS011;14839;48.106;11.618;2022-07-19T12:13:03;1.95;;;1.70;;
27367;SDS011;14839;48.106;11.618;2022-07-19T12:15:49;2.45;;;2.25;;
27367;SDS011;14839;48.106;11.618;2022-07-19T12:18:20;3.70;;;2.30;;
27367;SDS011;14839;48.106;11.618;2022-07-19T12:26:53;3.42;;;2.58;;
27367;SDS011;14839;48.106;11.618;2022-07-19T12:31:52;2.92;;;1.90;;
27367;SDS011;14839;48.106;11.618;2022-07-19T12:34:26;2.55;;;2.35;;
27367;SDS011;14839;48.106;11.618;2022-07-19T12:36:53;3.50;;;2.83;;
27367;SDS011;14839;48.106;11.618;2022-07-19T12:39:20;3.63;;;2.83;;
27367;SDS011;14839;48.106;11.618;2022-07-19T12:41:52;2.95;;;2.28;;
27367;SDS011;14839;48.106;11.618;2022-07-19T12:44:29;2.60;;;2.40;;
27367;SDS011;14839;48.106;11.618;2022-07-19T12:46:57;4.18;;;3.40;;
27367;SDS011;14839;48.106;11.618;2022-07-19T12:49:24;4.05;;;3.03;;
27367;SDS011;14839;48.106;11.618;2022-07-19T12:51:50;3.00;;;2.70;;
27367;SDS011;14839;48.106;11.618;2022-07-19T12:54:16;3.45;;;2.70;;
27367;SDS011;14839;48.106;11.618;2022-07-19T12:56:42;2.95;;;2.65;;
27367;SDS011;14839;48.106;11.618;2022-07-19T12:59:07;3.65;;;3.20;;
27367;SDS011;14839;48.106;11.618;2022-07-19T13:01:51;3.75;;;3.00;;
27367;SDS011;14839;48.106;11.618;2022-07-19T13:04:17;3.42;;;3.13;;
27367;SDS011;14839;48.106;11.618;2022-07-19T13:06:42;3.88;;;3.47;;
27367;SDS011;14839;48.106;11.618;2022-07-19T13:09:08;4.97;;;3.63;;
27367;SDS011;14839;48.106;11.618;2022-07-19T13:11:34;5.13;;;3.78;;
27367;SDS011;14839;48.106;11.618;2022-07-19T13:14:00;5.40;;;3.80;;
27367;SDS011;14839;48.106;11.618;2022-07-19T13:16:26;3.92;;;3.38;;
27367;SDS011;14839;48.106;11.618;2022-07-19T13:18:52;4.18;;;3.08;;
27367;SDS011;14839;48.106;11.618;2022-07-19T13:21:18;4.22;;;3.20;;
27367;SDS011;14839;48.106;11.618;2022-07-19T13:23:44;7.95;;;4.10;;
27367;SDS011;14839;48.106;11.618;2022-07-19T13:26:10;4.60;;;3.65;;
27367;SDS011;14839;48.106;11.618;2022-07-19T13:28:36;3.25;;;2.95;;
27367;SDS011;14839;48.106;11.618;2022-07-19T13:31:02;3.42;;;3.13;;
27367;SDS011;14839;48.106;11.618;2022-07-19T13:33:28;3.95;;;3.45;;
27367;SDS011;14839;48.106;11.618;2022-07-19T13:35:54;4.80;;;3.90;;
27367;SDS011;14839;48.106;11.618;2022-07-19T13:38:20;6.07;;;3.20;;
27367;SDS011;14839;48.106;11.618;2022-07-19T13:40:45;5.40;;;3.25;;
27367;SDS011;14839;48.106;11.618;2022-07-19T13:43:11;4.32;;;3.70;;
27367;SDS011;14839;48.106;11.618;2022-07-19T13:45:36;3.25;;;2.95;;
27367;SDS011;14839;48.106;11.618;2022-07-19T13:48:02;5.25;;;3.30;;
27367;SDS011;14839;48.106;11.618;2022-07-19T13:50:28;4.53;;;3.70;;
27367;SDS011;14839;48.106;11.618;2022-07-19T13:52:55;5.63;;;3.60;;
27367;SDS011;14839;48.106;11.618;2022-07-19T13:55:22;3.58;;;3.20;;
27367;SDS011;14839;48.106;11.618;2022-07-19T13:57:47;3.90;;;3.47;;
27367;SDS011;14839;48.106;11.618;2022-07-19T14:00:13;4.88;;;3.60;;
27367;SDS011;14839;48.106;11.618;2022-07-19T14:02:42;3.63;;;3.25;;
27367;SDS011;14839;48.106;11.618;2022-07-19T14:05:08;4.25;;;3.50;;
27367;SDS011;14839;48.106;11.618;2022-07-19T14:07:33;4.32;;;3.70;;
27367;SDS011;14839;48.106;11.618;2022-07-19T14:09:59;5.15;;;4.20;;
27367;SDS011;14839;48.106;11.618;2022-07-19T14:12:25;5.47;;;3.40;;
27367;SDS011;14839;48.106;11.618;2022-07-19T14:14:50;4.35;;;3.20;;
27367;SDS011;14839;48.106;11.618;2022-07-19T14:17:16;4.18;;;3.30;;
27367;SDS011;14839;48.106;11.618;2022-07-19T14:19:42;3.30;;;3.00;;
27367;SDS011;14839;48.106;11.618;2022-07-19T14:22:08;3.20;;;2.90;;
27367;SDS011;14839;48.106;11.618;2022-07-19T14:24:33;4.43;;;3.30;;
27367;SDS011;14839;48.106;11.618;2022-07-19T14:26:59;3.75;;;3.25;;
27367;SDS011;14839;48.106;11.618;2022-07-19T14:29:25;3.78;;;3.47;;
27367;SDS011;14839;48.106;11.618;2022-07-19T14:31:50;3.35;;;2.55;;
27367;SDS011;14839;48.106;11.618;2022-07-19T14:34:16;3.00;;;2.58;;
27367;SDS011;14839;48.106;11.618;2022-07-19T14:36:42;2.95;;;2.67;;
27367;SDS011;14839;48.106;11.618;2022-07-19T14:39:07;3.20;;;2.40;;
27367;SDS011;14839;48.106;11.618;2022-07-19T14:41:33;5.20;;;2.53;;
27367;SDS011;14839;48.106;11.618;2022-07-19T14:44:00;3.58;;;2.55;;
27367;SDS011;14839;48.106;11.618;2022-07-19T14:46:26;3.25;;;2.90;;
27367;SDS011;14839;48.106;11.618;2022-07-19T14:48:51;3.30;;;2.75;;
27367;SDS011;14839;48.106;11.618;2022-07-19T14:51:17;3.78;;;3.00;;
27367;SDS011;14839;48.106;11.618;2022-07-19T14:53:42;3.55;;;3.00;;
27367;SDS011;14839;48.106;11.618;2022-07-19T14:56:08;4.97;;;3.42;;
27367;SDS011;14839;48.106;11.618;2022-07-19T14:58:33;2.83;;;2.60;;
27367;SDS011;14839;48.106;11.618;2022-07-19T15:01:01;3.67;;;2.60;;
27367;SDS011;14839;48.106;11.618;2022-07-19T15:03:27;5.30;;;3.00;;
27367;SDS011;14839;48.106;11.618;2022-07-19T15:05:53;2.50;;;2.30;;
27367;SDS011;14839;48.106;11.618;2022-07-19T15:08:18;4.93;;;2.72;;
27367;SDS011;14839;48.106;11.618;2022-07-19T15:10:44;3.30;;;2.90;;
27367;SDS011;14839;48.106;11.618;2022-07-19T15:13:10;3.08;;;2.60;;
27367;SDS011;14839;48.106;11.618;2022-07-19T15:15:35;8.20;;;2.63;;
27367;SDS011;14839;48.106;11.618;2022-07-19T15:18:01;5.43;;;2.80;;
27367;SDS011;14839;48.106;11.618;2022-07-19T15:20:27;5.55;;;2.70;;
27367;SDS011;14839;48.106;11.618;2022-07-19T15:22:52;4.18;;;2.80;;
27367;SDS011;14839;48.106;11.618;2022-07-19T15:25:18;2.92;;;2.45;;
27367;SDS011;14839;48.106;11.618;2022-07-19T15:27:47;3.63;;;2.53;;
27367;SDS011;14839;48.106;11.618;2022-07-19T15:30:17;5.93;;;2.47;;
27367;SDS011;14839;48.106;11.618;2022-07-19T15:32:44;4.20;;;2.45;;
27367;SDS011;14839;48.106;11.618;2022-07-19T15:35:09;3.53;;;2.60;;
27367;SDS011;14839;48.106;11.618;2022-07-19T15:37:35;5.25;;;2.97;;
27367;SDS011;14839;48.106;11.618;2022-07-19T15:40:01;4.57;;;2.70;;
27367;SDS011;14839;48.106;11.618;2022-07-19T15:42:27;2.92;;;2.63;;
27367;SDS011;14839;48.106;11.618;2022-07-19T15:44:53;5.47;;;3.08;;
27367;SDS011;14839;48.106;11.618;2022-07-19T15:47:18;2.95;;;2.35;;
27367;SDS011;14839;48.106;11.618;2022-07-19T15:49:44;6.03;;;2.38;;
27367;SDS011;14839;48.106;11.618;2022-07-19T15:52:09;2.88;;;2.47;;
27367;SDS011;14839;48.106;11.618;2022-07-19T15:54:35;2.72;;;2.42;;
27367;SDS011;14839;48.106;11.618;2022-07-19T15:57:01;3.20;;;2.65;;
27367;SDS011;14839;48.106;11.618;2022-07-19T15:59:27;3.38;;;2.58;;
27367;SDS011;14839;48.106;11.618;2022-07-19T16:01:53;3.90;;;2.47;;
27367;SDS011;14839;48.106;11.618;2022-07-19T16:04:19;2.50;;;2.30;;
27367;SDS011;14839;48.106;11.618;2022-07-19T16:06:44;3.33;;;2.70;;
27367;SDS011;14839;48.106;11.618;2022-07-19T16:09:10;4.65;;;2.08;;
27367;SDS011;14839;48.106;11.618;2022-07-19T16:11:36;3.25;;;2.35;;
27367;SDS011;14839;48.106;11.618;2022-07-19T16:14:02;3.08;;;2.42;;
27367;SDS011;14839;48.106;11.618;2022-07-19T16:16:27;4.35;;;2.60;;
27367;SDS011;14839;48.106;11.618;2022-07-19T16:18:53;2.65;;;2.40;;
27367;SDS011;14839;48.106;11.618;2022-07-19T16:21:19;2.80;;;2.33;;
27367;SDS011;14839;48.106;11.618;2022-07-19T16:23:45;2.72;;;2.42;;
27367;SDS011;14839;48.106;11.618;2022-07-19T16:26:11;3.78;;;2.17;;
27367;SDS011;14839;48.106;11.618;2022-07-19T16:28:37;2.60;;;2.10;;
27367;SDS011;14839;48.106;11.618;2022-07-19T16:31:03;3.60;;;2.30;;
27367;SDS011;14839;48.106;11.618;2022-07-19T16:33:29;3.80;;;2.50;;
27367;SDS011;14839;48.106;11.618;2022-07-19T16:35:54;2.53;;;2.28;;
27367;SDS011;14839;48.106;11.618;2022-07-19T16:38:20;3.08;;;2.47;;
27367;SDS011;14839;48.106;11.618;2022-07-19T16:40:46;6.40;;;2.83;;
27367;SDS011;14839;48.106;11.618;2022-07-19T16:43:11;2.88;;;2.42;;
27367;SDS011;14839;48.106;11.618;2022-07-19T16:45:37;3.58;;;2.30;;
27367;SDS011;14839;48.106;11.618;2022-07-19T16:48:03;5.82;;;2.35;;
27367;SDS011;14839;48.106;11.618;2022-07-19T16:50:29;2.80;;;2.22;;
27367;SDS011;14839;48.106;11.618;2022-07-19T16:52:58;2.40;;;2.20;;
27367;SDS011;14839;48.106;11.618;2022-07-19T16:55:25;2.33;;;2.10;;
27367;SDS011;14839;48.106;11.618;2022-07-19T16:57:52;3.03;;;2.58;;
27367;SDS011;14839;48.106;11.618;2022-07-19T17:00:18;3.60;;;2.42;;
27367;SDS011;14839;48.106;11.618;2022-07-19T17:02:43;6.43;;;2.35;;
27367;SDS011;14839;48.106;11.618;2022-07-19T17:05:09;4.20;;;2.28;;
27367;SDS011;14839;48.106;11.618;2022-07-19T17:07:35;3.10;;;2.80;;
27367;SDS011;14839;48.106;11.618;2022-07-19T17:10:00;3.40;;;2.35;;
27367;SDS011;14839;48.106;11.618;2022-07-19T17:12:26;8.15;;;2.45;;
27367;SDS011;14839;48.106;11.618;2022-07-19T17:14:52;3.05;;;2.70;;
27367;SDS011;14839;48.106;11.618;2022-07-19T17:17:18;2.40;;;2.13;;
27367;SDS011;14839;48.106;11.618;2022-07-19T17:19:43;2.50;;;2.30;;
27367;SDS011;14839;48.106;11.618;2022-07-19T17:22:09;2.88;;;2.15;;
27367;SDS011;14839;48.106;11.618;2022-07-19T17:24:39;2.90;;;2.38;;
27367;SDS011;14839;48.106;11.618;2022-07-19T17:27:05;5.85;;;2.45;;
27367;SDS011;14839;48.106;11.618;2022-07-19T17:29:31;2.42;;;2.22;;
27367;SDS011;14839;48.106;11.618;2022-07-19T17:31:57;2.83;;;2.20;;
27367;SDS011;14839;48.106;11.618;2022-07-19T17:34:22;2.45;;;2.00;;
27367;SDS011;14839;48.106;11.618;2022-07-19T17:36:48;5.32;;;2.35;;
27367;SDS011;14839;48.106;11.618;2022-07-19T17:39:13;3.67;;;2.70;;
27367;SDS011;14839;48.106;11.618;2022-07-19T17:41:39;6.38;;;2.20;;
27367;SDS011;14839;48.106;11.618;2022-07-19T17:44:04;3.17;;;2.35;;
27367;SDS011;14839;48.106;11.618;2022-07-19T17:46:30;2.67;;;2.40;;
27367;SDS011;14839;48.106;11.618;2022-07-19T17:48:58;3.83;;;2.20;;
27367;SDS011;14839;48.106;11.618;2022-07-19T17:51:25;4.88;;;2.00;;
27367;SDS011;14839;48.106;11.618;2022-07-19T17:53:50;4.22;;;1.60;;
27367;SDS011;14839;48.106;11.618;2022-07-19T17:56:16;5.38;;;2.38;;
27367;SDS011;14839;48.106;11.618;2022-07-19T17:58:42;4.22;;;2.17;;
27367;SDS011;14839;48.106;11.618;2022-07-19T18:01:07;4.20;;;2.22;;
27367;SDS011;14839;48.106;11.618;2022-07-19T18:03:33;4.13;;;2.08;;
27367;SDS011;14839;48.106;11.618;2022-07-19T18:05:59;3.22;;;2.28;;
27367;SDS011;14839;48.106;11.618;2022-07-19T18:08:24;2.92;;;2.03;;
27367;SDS011;14839;48.106;11.618;2022-07-19T18:10:50;2.60;;;2.17;;
27367;SDS011;14839;48.106;11.618;2022-07-19T18:13:16;4.03;;;2.25;;
27367;SDS011;14839;48.106;11.618;2022-07-19T18:15:41;5.82;;;2.28;;
27367;SDS011;14839;48.106;11.618;2022-07-19T18:18:07;2.67;;;2.45;;
27367;SDS011;14839;48.106;11.618;2022-07-19T18:20:32;3.45;;;1.98;;
27367;SDS011;14839;48.106;11.618;2022-07-19T18:22:58;5.97;;;1.92;;
27367;SDS011;14839;48.106;11.618;2022-07-19T18:25:23;2.00;;;1.77;;
27367;SDS011;14839;48.106;11.618;2022-07-19T18:27:49;4.35;;;1.98;;
27367;SDS011;14839;48.106;11.618;2022-07-19T18:30:15;3.72;;;2.30;;
27367;SDS011;14839;48.106;11.618;2022-07-19T18:32:41;4.63;;;1.75;;
27367;SDS011;14839;48.106;11.618;2022-07-19T18:35:08;3.55;;;1.90;;
27367;SDS011;14839;48.106;11.618;2022-07-19T18:37:33;2.08;;;1.65;;
27367;SDS011;14839;48.106;11.618;2022-07-19T18:39:59;2.00;;;1.83;;
27367;SDS011;14839;48.106;11.618;2022-07-19T18:42:24;2.60;;;1.98;;
27367;SDS011;14839;48.106;11.618;2022-07-19T18:44:50;4.60;;;2.10;;
27367;SDS011;14839;48.106;11.618;2022-07-19T18:47:16;3.15;;;1.92;;
27367;SDS011;14839;48.106;11.618;2022-07-19T18:49:42;3.10;;;2.00;;
27367;SDS011;14839;48.106;11.618;2022-07-19T18:52:08;1.83;;;1.63;;
27367;SDS011;14839;48.106;11.618;2022-07-19T18:54:34;3.30;;;2.30;;
27367;SDS011;14839;48.106;11.618;2022-07-19T18:57:00;7.43;;;2.20;;
27367;SDS011;14839;48.106;11.618;2022-07-19T18:59:26;2.17;;;1.85;;
27367;SDS011;14839;48.106;11.618;2022-07-19T19:01:52;2.65;;;1.95;;
27367;SDS011;14839;48.106;11.618;2022-07-19T19:04:18;4.35;;;2.35;;
27367;SDS011;14839;48.106;11.618;2022-07-19T19:06:43;2.50;;;2.30;;
27367;SDS011;14839;48.106;11.618;2022-07-19T19:09:09;2.17;;;1.92;;
27367;SDS011;14839;48.106;11.618;2022-07-19T19:11:35;4.95;;;2.00;;